createdAt,value
2017-12-23T00:00:38.331Z,94.5
2017-12-23T00:01:38.991Z,94.4
2017-12-23T00:02:39.651Z,94.6
2017-12-23T00:03:40.311Z,94.2
2017-12-23T00:04:40.973Z,94.9
2017-12-23T00:05:41.632Z,94.9
2017-12-23T00:06:42.291Z,95.1
2017-12-23T00:07:42.953Z,94.6
2017-12-23T00:08:43.613Z,94.6
2017-12-23T00:09:44.273Z,94.9
2017-12-23T00:10:44.933Z,95.2
2017-12-23T00:11:45.594Z,94.5
2017-12-23T00:12:46.254Z,94.6
2017-12-23T00:13:46.914Z,94.4
2017-12-23T00:14:47.574Z,94.5
2017-12-23T00:15:48.237Z,94.4
2017-12-23T00:16:48.870Z,94.3
2017-12-23T00:17:49.534Z,94.4
2017-12-23T00:18:50.228Z,94.1
2017-12-23T00:19:50.890Z,94.3
2017-12-23T00:20:51.552Z,94.1
2017-12-23T00:21:52.213Z,94.4
2017-12-23T00:22:52.923Z,94.1
2017-12-23T00:23:53.583Z,93.5
2017-12-23T00:24:54.245Z,93.6
2017-12-23T00:25:54.904Z,93.7
2017-12-23T00:26:55.564Z,93.4
2017-12-23T00:27:56.225Z,93.5
2017-12-23T00:28:56.886Z,93.4
2017-12-23T00:29:57.546Z,93.7
2017-12-23T00:30:58.205Z,93.4
2017-12-23T00:31:58.864Z,93.6
2017-12-23T00:32:59.575Z,93.5
2017-12-23T00:34:00.236Z,93.9
2017-12-23T00:35:00.898Z,93.8
2017-12-23T00:36:01.560Z,93.7
2017-12-23T00:37:02.220Z,94.3
2017-12-23T00:38:02.884Z,94.3
2017-12-23T00:39:03.544Z,94.1
2017-12-23T00:40:04.205Z,94.5
2017-12-23T00:41:04.867Z,94.3
2017-12-23T00:42:05.528Z,93.6
2017-12-23T00:43:06.190Z,93.7
2017-12-23T00:44:06.849Z,93.4
2017-12-23T00:45:07.510Z,93.4
2017-12-23T00:46:08.172Z,93.7
2017-12-23T00:47:08.835Z,94.4
2017-12-23T00:48:09.496Z,93.8
2017-12-23T00:49:10.157Z,94.1
2017-12-23T00:50:10.818Z,94.5
2017-12-23T00:51:11.480Z,94.1
2017-12-23T00:52:12.139Z,94.5
2017-12-23T00:53:12.800Z,94.5
2017-12-23T00:54:13.460Z,94.3
2017-12-23T00:55:14.122Z,94.3
2017-12-23T00:56:14.783Z,94.1
2017-12-23T00:57:15.443Z,94.4
2017-12-23T00:58:16.104Z,93.9
2017-12-23T00:59:16.765Z,94.0
2017-12-23T01:00:17.427Z,94.0
2017-12-23T01:01:18.086Z,94.3
2017-12-23T01:02:18.747Z,94.2
2017-12-23T01:03:19.409Z,93.9
2017-12-23T01:04:20.070Z,94.4
2017-12-23T01:05:20.730Z,94.4
2017-12-23T01:06:21.392Z,94.3
2017-12-23T01:07:22.052Z,94.3
2017-12-23T01:08:22.715Z,94.3
2017-12-23T01:09:23.372Z,94.4
2017-12-23T01:10:24.034Z,94.3
2017-12-23T01:11:24.692Z,95.1
2017-12-23T01:12:25.361Z,95.2
2017-12-23T01:13:26.065Z,95.1
2017-12-23T01:14:26.730Z,94.9
2017-12-23T01:15:27.385Z,94.9
2017-12-23T01:16:28.047Z,95.3
2017-12-23T01:17:28.707Z,95.2
2017-12-23T01:18:29.416Z,95.1
2017-12-23T01:19:30.077Z,94.9
2017-12-23T01:20:30.738Z,95.0
2017-12-23T01:21:31.399Z,95.0
2017-12-23T01:22:32.059Z,94.8
2017-12-23T01:23:32.720Z,95.4
2017-12-23T01:24:33.380Z,95.4
2017-12-23T01:25:34.076Z,95.4
2017-12-23T01:26:34.736Z,95.2
2017-12-23T01:27:35.396Z,95.5
2017-12-23T01:28:36.056Z,96.3
2017-12-23T01:29:36.715Z,96.0
2017-12-23T01:30:37.374Z,96.1
2017-12-23T01:31:38.033Z,95.9
2017-12-23T01:32:38.694Z,96.2
2017-12-23T01:33:39.353Z,96.9
2017-12-23T01:34:40.015Z,96.8
2017-12-23T01:35:40.675Z,96.9
2017-12-23T01:36:41.336Z,96.6
2017-12-23T01:37:41.996Z,96.9
2017-12-23T01:38:42.706Z,97.4
2017-12-23T01:39:43.366Z,97.6
2017-12-23T01:40:44.027Z,97.6
2017-12-23T01:41:44.725Z,97.7
2017-12-23T01:42:45.384Z,96.8
2017-12-23T01:43:46.045Z,97.2
2017-12-23T01:44:46.703Z,97.2
2017-12-23T01:45:47.362Z,96.9
2017-12-23T01:46:48.022Z,97.0
2017-12-23T01:47:48.687Z,96.8
2017-12-23T01:48:49.343Z,96.4
2017-12-23T01:49:50.004Z,96.8
2017-12-23T01:50:50.666Z,96.1
2017-12-23T01:51:51.324Z,96.4
2017-12-23T01:52:51.984Z,96.3
2017-12-23T01:53:52.643Z,96.7
2017-12-23T01:54:53.304Z,96.4
2017-12-23T01:55:53.965Z,96.2
2017-12-23T01:56:54.625Z,96.1
2017-12-23T01:57:55.286Z,95.9
2017-12-23T01:58:55.946Z,96.1
2017-12-23T01:59:56.641Z,95.9
2017-12-23T02:00:57.303Z,96.6
2017-12-23T02:01:58.027Z,96.0
2017-12-23T02:02:58.654Z,96.1
2017-12-23T02:03:59.363Z,96.4
2017-12-23T02:05:00.023Z,96.2
2017-12-23T02:06:00.682Z,96.0
2017-12-23T02:07:01.341Z,96.1
2017-12-23T02:08:02.002Z,96.4
2017-12-23T02:09:02.710Z,95.9
2017-12-23T02:10:03.372Z,96.2
2017-12-23T02:11:04.033Z,96.3
2017-12-23T02:12:04.692Z,96.6
2017-12-23T02:13:05.354Z,97.0
2017-12-23T02:14:06.017Z,97.0
2017-12-23T02:15:06.674Z,96.6
2017-12-23T02:16:07.334Z,96.6
2017-12-23T02:17:07.996Z,96.7
2017-12-23T02:18:08.657Z,97.0
2017-12-23T02:19:09.368Z,96.7
2017-12-23T02:20:10.028Z,97.6
2017-12-23T02:21:10.688Z,97.5
2017-12-23T02:22:11.346Z,97.8
2017-12-23T02:23:12.006Z,97.6
2017-12-23T02:24:12.667Z,97.3
2017-12-23T02:25:13.327Z,98.1
2017-12-23T02:26:13.986Z,98.2
2017-12-23T02:27:14.644Z,97.9
2017-12-23T02:28:15.302Z,97.9
2017-12-23T02:29:15.963Z,98.0
2017-12-23T02:30:16.623Z,98.2
2017-12-23T02:31:17.281Z,98.2
2017-12-23T02:32:17.940Z,98.2
2017-12-23T02:33:18.599Z,98.6
2017-12-23T02:34:19.260Z,98.4
2017-12-23T02:35:19.919Z,98.5
2017-12-23T02:36:20.579Z,98.4
2017-12-23T02:37:21.237Z,98.2
2017-12-23T02:38:21.896Z,98.1
2017-12-23T02:39:22.557Z,98.4
2017-12-23T02:40:23.218Z,98.4
2017-12-23T02:41:23.911Z,98.4
2017-12-23T02:42:24.573Z,98.4
2017-12-23T02:43:25.233Z,98.3
2017-12-23T02:44:25.893Z,98.2
2017-12-23T02:45:26.555Z,98.8
2017-12-23T02:46:27.215Z,98.8
2017-12-23T02:47:27.875Z,98.7
2017-12-23T02:48:28.536Z,98.5
2017-12-23T02:49:29.196Z,98.6
2017-12-23T02:50:29.855Z,98.2
2017-12-23T02:51:30.515Z,98.4
2017-12-23T02:52:31.177Z,98.3
2017-12-23T02:53:31.836Z,98.5
2017-12-23T02:54:32.494Z,98.4
2017-12-23T02:55:33.155Z,98.4
2017-12-23T02:56:33.816Z,98.7
2017-12-23T02:57:34.476Z,98.2
2017-12-23T02:58:35.135Z,98.0
2017-12-23T02:59:35.795Z,98.2
2017-12-23T03:00:36.454Z,98.1
2017-12-23T03:01:37.115Z,97.4
2017-12-23T03:02:37.776Z,97.7
2017-12-23T03:03:38.443Z,97.8
2017-12-23T03:04:39.094Z,97.5
2017-12-23T03:05:39.754Z,97.5
2017-12-23T03:06:40.415Z,96.9
2017-12-23T03:07:41.075Z,96.7
2017-12-23T03:08:41.735Z,96.6
2017-12-23T03:09:42.395Z,96.4
2017-12-23T03:10:43.055Z,96.0
2017-12-23T03:11:43.715Z,96.2
2017-12-23T03:12:44.410Z,96.1
2017-12-23T03:13:45.069Z,96.0
2017-12-23T03:14:45.778Z,96.3
2017-12-23T03:15:46.438Z,95.9
2017-12-23T03:16:47.098Z,95.9
2017-12-23T03:17:47.758Z,95.8
2017-12-23T03:18:48.453Z,96.0
2017-12-23T03:19:49.113Z,96.1
2017-12-23T03:20:49.774Z,96.1
2017-12-23T03:21:50.434Z,96.2
2017-12-23T03:22:51.094Z,95.9
2017-12-23T03:23:51.755Z,96.6
2017-12-23T03:24:52.415Z,96.1
2017-12-23T03:25:53.076Z,96.4
2017-12-23T03:26:53.737Z,96.1
2017-12-23T03:27:54.398Z,96.1
2017-12-23T03:28:55.057Z,96.2
2017-12-23T03:29:55.724Z,96.3
2017-12-23T03:30:56.388Z,96.9
2017-12-23T03:31:57.038Z,96.7
2017-12-23T03:32:57.699Z,96.7
2017-12-23T03:33:58.358Z,96.7
2017-12-23T03:34:59.019Z,97.3
2017-12-23T03:35:59.678Z,97.3
2017-12-23T03:37:00.338Z,97.1
2017-12-23T03:38:00.996Z,97.5
2017-12-23T03:39:01.657Z,97.5
2017-12-23T03:40:02.317Z,97.3
2017-12-23T03:41:02.977Z,97.4
2017-12-23T03:42:03.636Z,98.2
2017-12-23T03:43:04.296Z,98.0
2017-12-23T03:44:04.956Z,97.8
2017-12-23T03:45:05.650Z,97.9
2017-12-23T03:46:06.312Z,97.9
2017-12-23T03:47:07.007Z,98.2
2017-12-23T03:48:07.666Z,98.3
2017-12-23T03:49:08.326Z,98.2
2017-12-23T03:50:08.986Z,98.5
2017-12-23T03:51:09.645Z,98.4
2017-12-23T03:52:10.305Z,98.9
2017-12-23T03:53:10.963Z,98.8
2017-12-23T03:54:11.621Z,99.0
2017-12-23T03:55:12.339Z,99.3
2017-12-23T03:56:12.991Z,99.4
2017-12-23T03:57:13.651Z,99.4
2017-12-23T03:58:14.312Z,98.9
2017-12-23T03:59:14.976Z,99.3
2017-12-23T04:00:15.669Z,99.1
2017-12-23T04:01:16.330Z,99.1
2017-12-23T04:02:16.989Z,99.0
2017-12-23T04:03:17.650Z,99.0
2017-12-23T04:04:18.311Z,99.1
2017-12-23T04:05:18.969Z,99.3
2017-12-23T04:06:19.631Z,99.3
2017-12-23T04:07:20.291Z,99.0
2017-12-23T04:08:20.951Z,98.9
2017-12-23T04:09:21.611Z,98.3
2017-12-23T04:10:22.273Z,98.4
2017-12-23T04:11:22.930Z,97.9
2017-12-23T04:12:23.590Z,97.9
2017-12-23T04:13:24.250Z,98.3
2017-12-23T04:14:24.909Z,98.4
2017-12-23T04:15:25.569Z,97.6
2017-12-23T04:16:26.229Z,97.4
2017-12-23T04:17:26.887Z,97.5
2017-12-23T04:18:27.547Z,97.2
2017-12-23T04:19:28.206Z,97.4
2017-12-23T04:20:28.865Z,97.3
2017-12-23T04:21:29.525Z,96.6
2017-12-23T04:22:30.185Z,96.8
2017-12-23T04:23:30.842Z,96.8
2017-12-23T04:24:31.502Z,96.7
2017-12-23T04:25:32.163Z,96.6
2017-12-23T04:26:32.821Z,96.6
2017-12-23T04:27:33.481Z,96.4
2017-12-23T04:28:34.141Z,96.5
2017-12-23T04:29:34.801Z,96.6
2017-12-23T04:30:35.461Z,96.6
2017-12-23T04:31:36.120Z,96.6
2017-12-23T04:32:36.780Z,96.2
2017-12-23T04:33:37.443Z,95.9
2017-12-23T04:34:38.136Z,95.9
2017-12-23T04:35:38.796Z,96.1
2017-12-23T04:36:39.456Z,95.3
2017-12-23T04:37:40.117Z,95.7
2017-12-23T04:38:40.779Z,95.6
2017-12-23T04:39:41.437Z,95.3
2017-12-23T04:40:42.098Z,95.3
2017-12-23T04:41:42.758Z,94.7
2017-12-23T04:42:43.419Z,95.0
2017-12-23T04:43:44.078Z,95.7
2017-12-23T04:44:44.738Z,95.5
2017-12-23T04:45:45.399Z,95.6
2017-12-23T04:46:46.059Z,95.1
2017-12-23T04:47:46.718Z,94.8
2017-12-23T04:48:47.377Z,94.8
2017-12-23T04:49:48.038Z,95.0
2017-12-23T04:50:48.699Z,95.1
2017-12-23T04:51:49.358Z,95.3
2017-12-23T04:52:50.018Z,95.2
2017-12-23T04:53:50.677Z,94.7
2017-12-23T04:54:51.337Z,94.4
2017-12-23T04:55:51.998Z,94.4
2017-12-23T04:56:52.658Z,94.6
2017-12-23T04:57:53.317Z,94.4
2017-12-23T04:58:53.978Z,94.7
2017-12-23T04:59:54.639Z,94.7
2017-12-23T05:00:55.298Z,94.1
2017-12-23T05:01:55.957Z,94.3
2017-12-23T05:02:56.618Z,94.4
2017-12-23T05:03:57.277Z,93.5
2017-12-23T05:04:58.017Z,93.8
2017-12-23T05:05:58.612Z,93.5
2017-12-23T05:06:59.266Z,93.5
2017-12-23T05:07:59.927Z,93.5
2017-12-23T05:09:00.586Z,93.3
2017-12-23T05:10:01.247Z,93.7
2017-12-23T05:11:01.906Z,92.8
2017-12-23T05:12:02.567Z,93.3
2017-12-23T05:13:03.227Z,93.3
2017-12-23T05:14:03.885Z,93.1
2017-12-23T05:15:04.546Z,93.2
2017-12-23T05:16:05.205Z,92.5
2017-12-23T05:17:05.865Z,92.7
2017-12-23T05:18:06.525Z,92.7
2017-12-23T05:19:07.185Z,92.7
2017-12-23T05:20:07.846Z,93.1
2017-12-23T05:21:08.522Z,92.8
2017-12-23T05:22:09.165Z,92.9
2017-12-23T05:23:09.824Z,93.1
2017-12-23T05:24:10.485Z,92.9
2017-12-23T05:25:11.144Z,92.8
2017-12-23T05:26:11.804Z,92.9
2017-12-23T05:27:12.464Z,92.9
2017-12-23T05:28:13.124Z,93.1
2017-12-23T05:29:13.782Z,93.0
2017-12-23T05:30:14.444Z,93.1
2017-12-23T05:31:15.104Z,92.2
2017-12-23T05:32:15.765Z,92.3
2017-12-23T05:33:16.424Z,92.0
2017-12-23T05:34:17.086Z,92.3
2017-12-23T05:35:17.745Z,92.1
2017-12-23T05:36:18.403Z,92.1
2017-12-23T05:37:19.062Z,91.9
2017-12-23T05:38:19.721Z,92.1
2017-12-23T05:39:20.380Z,92.0
2017-12-23T05:40:21.041Z,91.9
2017-12-23T05:41:21.700Z,91.9
2017-12-23T05:42:22.359Z,91.9
2017-12-23T05:43:23.020Z,91.8
2017-12-23T05:44:23.681Z,91.8
2017-12-23T05:45:24.340Z,91.8
2017-12-23T05:46:25.000Z,92.0
2017-12-23T05:47:25.660Z,92.0
2017-12-23T05:48:26.319Z,91.8
2017-12-23T05:49:26.982Z,92.0
2017-12-23T05:50:27.640Z,92.2
2017-12-23T05:51:28.301Z,92.2
2017-12-23T05:52:28.963Z,92.3
2017-12-23T05:53:29.621Z,92.8
2017-12-23T05:54:30.281Z,92.5
2017-12-23T05:55:30.941Z,92.8
2017-12-23T05:56:31.603Z,92.7
2017-12-23T05:57:32.262Z,92.8
2017-12-23T05:58:32.922Z,92.8
2017-12-23T05:59:33.582Z,93.4
2017-12-23T06:00:34.240Z,93.3
2017-12-23T06:01:34.901Z,92.6
2017-12-23T06:02:35.562Z,92.9
2017-12-23T06:03:36.221Z,92.9
2017-12-23T06:04:36.882Z,92.9
2017-12-23T06:05:37.543Z,92.7
2017-12-23T06:06:38.202Z,93.0
2017-12-23T06:07:38.862Z,92.9
2017-12-23T06:08:39.522Z,92.8
2017-12-23T06:09:40.183Z,93.2
2017-12-23T06:10:40.842Z,92.7
2017-12-23T06:11:41.503Z,92.6
2017-12-23T06:12:42.162Z,92.8
2017-12-23T06:13:42.821Z,92.7
2017-12-23T06:14:43.483Z,92.7
2017-12-23T06:15:44.142Z,92.6
2017-12-23T06:16:44.802Z,93.3
2017-12-23T06:17:45.462Z,92.7
2017-12-23T06:18:46.122Z,92.8
2017-12-23T06:19:46.782Z,93.3
2017-12-23T06:20:47.442Z,93.3
2017-12-23T06:21:48.103Z,92.8
2017-12-23T06:22:48.761Z,93.0
2017-12-23T06:23:49.423Z,93.0
2017-12-23T06:24:50.082Z,93.3
2017-12-23T06:25:50.743Z,93.8
2017-12-23T06:26:51.439Z,93.4
2017-12-23T06:27:52.063Z,93.1
2017-12-23T06:28:52.722Z,93.0
2017-12-23T06:29:53.382Z,92.7
2017-12-23T06:30:54.042Z,93.0
2017-12-23T06:31:54.702Z,92.9
2017-12-23T06:32:55.363Z,93.3
2017-12-23T06:33:56.024Z,92.6
2017-12-23T06:34:56.684Z,93.3
2017-12-23T06:35:57.344Z,93.1
2017-12-23T06:36:58.003Z,92.9
2017-12-23T06:37:58.662Z,92.8
2017-12-23T06:38:59.324Z,92.6
2017-12-23T06:39:59.984Z,92.9
2017-12-23T06:41:00.645Z,93.1
2017-12-23T06:42:01.303Z,92.9
2017-12-23T06:43:01.964Z,92.6
2017-12-23T06:44:02.625Z,92.9
2017-12-23T06:45:03.284Z,92.9
2017-12-23T06:46:03.944Z,93.2
2017-12-23T06:47:04.691Z,92.8
2017-12-23T06:48:05.352Z,93.1
2017-12-23T06:49:06.010Z,92.3
2017-12-23T06:50:06.671Z,92.0
2017-12-23T06:51:07.332Z,92.2
2017-12-23T06:52:07.991Z,92.3
2017-12-23T06:53:08.652Z,92.0
2017-12-23T06:54:09.312Z,92.2
2017-12-23T06:55:09.972Z,92.0
2017-12-23T06:56:10.633Z,92.0
2017-12-23T06:57:11.293Z,92.3
2017-12-23T06:58:11.954Z,92.4
2017-12-23T06:59:12.614Z,92.2
2017-12-23T07:00:13.276Z,92.2
2017-12-23T07:01:13.937Z,92.3
2017-12-23T07:02:14.599Z,92.3
2017-12-23T07:03:15.297Z,92.6
2017-12-23T07:04:15.957Z,92.7
2017-12-23T07:05:16.617Z,92.3
2017-12-23T07:06:17.278Z,92.1
2017-12-23T07:07:17.938Z,92.0
2017-12-23T07:08:18.601Z,91.8
2017-12-23T07:09:19.261Z,91.8
2017-12-23T07:10:19.922Z,92.0
2017-12-23T07:11:20.583Z,92.1
2017-12-23T07:12:21.244Z,91.8
2017-12-23T07:13:21.905Z,91.9
2017-12-23T07:14:22.566Z,91.8
2017-12-23T07:15:23.228Z,92.5
2017-12-23T07:16:23.888Z,92.3
2017-12-23T07:17:24.550Z,92.1
2017-12-23T07:18:25.210Z,92.0
2017-12-23T07:19:25.874Z,91.7
2017-12-23T07:20:26.541Z,92.1
2017-12-23T07:21:27.198Z,91.9
2017-12-23T07:22:27.861Z,91.8
2017-12-23T07:23:28.525Z,92.0
2017-12-23T07:24:29.190Z,92.2
2017-12-23T07:25:29.852Z,91.9
2017-12-23T07:26:30.516Z,91.9
2017-12-23T07:27:31.176Z,92.1
2017-12-23T07:28:31.839Z,91.8
2017-12-23T07:29:32.503Z,91.6
2017-12-23T07:30:33.167Z,91.8
2017-12-23T07:31:33.831Z,92.5
2017-12-23T07:32:34.495Z,91.9
2017-12-23T07:33:35.158Z,92.1
2017-12-23T07:34:35.822Z,92.1
2017-12-23T07:35:36.486Z,92.1
2017-12-23T07:36:37.152Z,92.4
2017-12-23T07:37:37.820Z,92.3
2017-12-23T07:38:38.482Z,93.0
2017-12-23T07:39:39.186Z,92.7
2017-12-23T07:40:39.809Z,92.6
2017-12-23T07:41:40.474Z,93.3
2017-12-23T07:42:41.138Z,93.1
2017-12-23T07:43:41.802Z,93.6
2017-12-23T07:44:42.466Z,93.7
2017-12-23T07:45:43.128Z,93.3
2017-12-23T07:46:43.792Z,93.8
2017-12-23T07:47:44.455Z,93.4
2017-12-23T07:48:45.123Z,94.1
2017-12-23T07:49:45.789Z,94.0
2017-12-23T07:50:46.453Z,94.3
2017-12-23T07:51:47.117Z,95.1
2017-12-23T07:52:47.783Z,95.2
2017-12-23T07:53:48.483Z,95.4
2017-12-23T07:54:49.149Z,94.9
2017-12-23T07:55:49.814Z,94.5
2017-12-23T07:56:50.478Z,95.0
2017-12-23T07:57:51.142Z,94.5
2017-12-23T07:58:51.807Z,95.4
2017-12-23T07:59:52.474Z,95.2
2017-12-23T08:00:53.146Z,95.2
2017-12-23T08:01:53.803Z,95.4
2017-12-23T08:02:54.767Z,95.4
2017-12-23T08:03:55.433Z,95.2
2017-12-23T08:04:56.134Z,95.2
2017-12-23T08:05:56.801Z,95.0
2017-12-23T08:06:57.463Z,95.0
2017-12-23T08:07:58.259Z,95.4
2017-12-23T08:08:58.847Z,94.7
2017-12-23T08:09:59.513Z,94.7
2017-12-23T08:11:00.180Z,94.8
2017-12-23T08:12:00.877Z,94.7
2017-12-23T08:13:01.550Z,94.6
2017-12-23T08:14:02.220Z,94.8
2017-12-23T08:15:02.908Z,94.6
2017-12-23T08:16:03.574Z,94.7
2017-12-23T08:17:04.244Z,94.9
2017-12-23T08:18:04.948Z,95.2
2017-12-23T08:19:05.608Z,95.1
2017-12-23T08:20:06.308Z,94.4
2017-12-23T08:21:06.974Z,94.6
2017-12-23T08:22:07.638Z,94.5
2017-12-23T08:23:08.304Z,94.5
2017-12-23T08:24:08.970Z,94.6
2017-12-23T08:25:09.635Z,94.5
2017-12-23T08:26:10.301Z,94.8
2017-12-23T08:27:10.966Z,94.5
2017-12-23T08:28:11.716Z,94.3
2017-12-23T08:29:12.382Z,93.7
2017-12-23T08:30:13.049Z,93.4
2017-12-23T08:31:13.724Z,93.5
2017-12-23T08:32:14.376Z,93.8
2017-12-23T08:33:15.044Z,93.7
2017-12-23T08:34:15.711Z,93.0
2017-12-23T08:35:16.375Z,93.0
2017-12-23T08:36:17.060Z,93.0
2017-12-23T08:37:17.705Z,93.2
2017-12-23T08:38:18.371Z,92.9
2017-12-23T08:39:19.037Z,93.0
2017-12-23T08:40:19.701Z,93.2
2017-12-23T08:41:20.365Z,93.4
2017-12-23T08:42:21.033Z,93.4
2017-12-23T08:43:21.700Z,93.0
2017-12-23T08:44:22.365Z,92.9
2017-12-23T08:45:23.029Z,92.6
2017-12-23T08:46:23.694Z,93.0
2017-12-23T08:47:24.361Z,92.9
2017-12-23T08:48:25.026Z,92.9
2017-12-23T08:49:25.690Z,93.0
2017-12-23T08:50:26.358Z,93.0
2017-12-23T08:51:27.022Z,92.6
2017-12-23T08:52:27.689Z,92.9
2017-12-23T08:53:28.357Z,92.9
2017-12-23T08:54:29.022Z,92.9
2017-12-23T08:55:29.687Z,92.7
2017-12-23T08:56:30.353Z,93.2
2017-12-23T08:57:31.018Z,93.0
2017-12-23T08:58:31.682Z,93.2
2017-12-23T08:59:32.347Z,92.2
2017-12-23T09:00:33.012Z,92.2
2017-12-23T09:01:33.679Z,92.0
2017-12-23T09:02:34.347Z,91.8
2017-12-23T09:03:35.012Z,92.4
2017-12-23T09:04:35.678Z,91.8
2017-12-23T09:05:36.344Z,91.8
2017-12-23T09:06:37.012Z,91.7
2017-12-23T09:07:37.677Z,91.1
2017-12-23T09:08:38.343Z,91.2
2017-12-23T09:09:39.009Z,91.4
2017-12-23T09:10:39.711Z,91.3
2017-12-23T09:11:40.378Z,90.9
2017-12-23T09:12:41.046Z,90.9
2017-12-23T09:13:41.711Z,90.9
2017-12-23T09:14:42.376Z,90.7
2017-12-23T09:15:43.043Z,90.4
2017-12-23T09:16:43.710Z,90.3
2017-12-23T09:17:44.375Z,90.5
2017-12-23T09:18:45.041Z,90.1
2017-12-23T09:19:45.706Z,90.7
2017-12-23T09:20:46.374Z,90.4
2017-12-23T09:21:47.045Z,90.1
2017-12-23T09:22:47.746Z,90.1
2017-12-23T09:23:48.411Z,90.1
2017-12-23T09:24:49.076Z,89.7
2017-12-23T09:25:49.743Z,89.6
2017-12-23T09:26:50.413Z,89.4
2017-12-23T09:27:51.078Z,89.3
2017-12-23T09:28:51.745Z,89.2
2017-12-23T09:29:52.413Z,88.9
2017-12-23T09:30:53.122Z,89.1
2017-12-23T09:31:53.786Z,89.4
2017-12-23T09:32:54.454Z,88.9
2017-12-23T09:33:55.120Z,89.6
2017-12-23T09:34:55.788Z,89.4
2017-12-23T09:35:56.457Z,89.4
2017-12-23T09:36:57.123Z,89.4
2017-12-23T09:37:57.790Z,89.7
2017-12-23T09:38:58.459Z,89.2
2017-12-23T09:39:59.127Z,89.6
2017-12-23T09:40:59.795Z,89.1
2017-12-23T09:42:00.463Z,89.1
2017-12-23T09:43:01.135Z,89.1
2017-12-23T09:44:01.838Z,89.4
2017-12-23T09:45:02.506Z,89.2
2017-12-23T09:46:03.206Z,89.9
2017-12-23T09:47:03.874Z,89.8
2017-12-23T09:48:04.540Z,89.8
2017-12-23T09:49:05.210Z,89.7
2017-12-23T09:50:05.878Z,89.2
2017-12-23T09:51:06.545Z,89.9
2017-12-23T09:52:07.213Z,89.4
2017-12-23T09:53:07.882Z,89.4
2017-12-23T09:54:08.549Z,89.3
2017-12-23T09:55:09.216Z,89.3
2017-12-23T09:56:09.884Z,89.5
2017-12-23T09:57:10.554Z,90.0
2017-12-23T09:58:11.221Z,89.4
2017-12-23T09:59:11.889Z,89.9
2017-12-23T10:00:12.595Z,90.1
2017-12-23T10:01:13.260Z,89.9
2017-12-23T10:02:13.930Z,89.3
2017-12-23T10:03:14.597Z,90.0
2017-12-23T10:04:15.263Z,90.1
2017-12-23T10:05:15.933Z,89.4
2017-12-23T10:06:16.602Z,89.9
2017-12-23T10:07:17.277Z,89.8
2017-12-23T10:08:17.937Z,89.6
2017-12-23T10:09:18.605Z,90.3
2017-12-23T10:10:19.272Z,90.3
2017-12-23T10:11:19.940Z,90.2
2017-12-23T10:12:20.608Z,90.3
2017-12-23T10:13:21.279Z,90.2
2017-12-23T10:14:21.948Z,90.5
2017-12-23T10:15:22.617Z,89.8
2017-12-23T10:16:23.286Z,89.4
2017-12-23T10:17:23.957Z,89.7
2017-12-23T10:18:24.626Z,89.2
2017-12-23T10:19:25.297Z,89.4
2017-12-23T10:20:25.965Z,88.9
2017-12-23T10:21:26.633Z,89.0
2017-12-23T10:22:27.302Z,89.0
2017-12-23T10:23:27.970Z,88.9
2017-12-23T10:24:28.638Z,88.7
2017-12-23T10:25:29.307Z,88.8
2017-12-23T10:26:29.977Z,88.8
2017-12-23T10:27:30.645Z,88.5
2017-12-23T10:28:31.315Z,88.0
2017-12-23T10:29:31.984Z,87.7
2017-12-23T10:30:32.688Z,87.8
2017-12-23T10:31:33.354Z,88.0
2017-12-23T10:32:34.023Z,87.6
2017-12-23T10:33:34.695Z,87.6
2017-12-23T10:34:35.362Z,87.7
2017-12-23T10:35:36.028Z,87.9
2017-12-23T10:36:36.696Z,87.8
2017-12-23T10:37:37.367Z,87.8
2017-12-23T10:38:38.033Z,88.1
2017-12-23T10:39:38.703Z,87.8
2017-12-23T10:40:39.372Z,88.1
2017-12-23T10:41:40.043Z,88.3
2017-12-23T10:42:40.709Z,88.3
2017-12-23T10:43:41.385Z,88.0
2017-12-23T10:44:42.046Z,88.6
2017-12-23T10:45:42.717Z,88.5
2017-12-23T10:46:43.418Z,88.6
2017-12-23T10:47:44.086Z,88.9
2017-12-23T10:48:44.754Z,88.6
2017-12-23T10:49:45.421Z,88.7
2017-12-23T10:50:46.092Z,88.7
2017-12-23T10:51:46.759Z,88.6
2017-12-23T10:52:47.427Z,88.3
2017-12-23T10:53:48.100Z,88.8
2017-12-23T10:54:48.764Z,88.9
2017-12-23T10:55:49.435Z,88.7
2017-12-23T10:56:50.103Z,89.0
2017-12-23T10:57:50.772Z,87.8
2017-12-23T10:58:51.441Z,88.2
2017-12-23T10:59:52.109Z,88.3
2017-12-23T11:00:52.779Z,87.9
2017-12-23T11:01:53.445Z,88.4
2017-12-23T11:02:54.115Z,87.9
2017-12-23T11:03:54.783Z,88.3
2017-12-23T11:04:55.453Z,88.3
2017-12-23T11:05:56.121Z,87.8
2017-12-23T11:06:56.792Z,87.6
2017-12-23T11:07:57.460Z,88.0
2017-12-23T11:08:58.128Z,87.7
2017-12-23T11:09:58.797Z,87.8
2017-12-23T11:10:59.476Z,87.9
2017-12-23T11:12:00.171Z,87.8
2017-12-23T11:13:00.840Z,88.3
2017-12-23T11:14:01.509Z,88.1
2017-12-23T11:15:02.176Z,88.0
2017-12-23T11:16:02.847Z,87.9
2017-12-23T11:17:03.515Z,87.7
2017-12-23T11:18:04.183Z,87.9
2017-12-23T11:19:04.851Z,88.1
2017-12-23T11:20:05.571Z,87.7
2017-12-23T11:21:06.237Z,87.8
2017-12-23T11:22:06.906Z,88.1
2017-12-23T11:23:07.577Z,87.7
2017-12-23T11:24:08.280Z,88.1
2017-12-23T11:25:08.949Z,87.7
2017-12-23T11:26:09.617Z,87.7
2017-12-23T11:27:10.285Z,87.9
2017-12-23T11:28:10.955Z,88.0
2017-12-23T11:29:11.624Z,87.9
2017-12-23T11:30:12.295Z,88.4
2017-12-23T11:31:12.964Z,87.8
2017-12-23T11:32:13.633Z,88.0
2017-12-23T11:33:14.300Z,88.1
2017-12-23T11:34:14.970Z,87.9
2017-12-23T11:35:15.639Z,88.0
2017-12-23T11:36:16.308Z,87.9
2017-12-23T11:37:16.976Z,87.9
2017-12-23T11:38:17.645Z,88.0
2017-12-23T11:39:18.313Z,87.8
2017-12-23T11:40:19.032Z,87.8
2017-12-23T11:41:19.702Z,87.7
2017-12-23T11:42:20.368Z,88.2
2017-12-23T11:43:21.071Z,88.1
2017-12-23T11:44:21.738Z,88.0
2017-12-23T11:45:22.446Z,88.0
2017-12-23T11:46:23.080Z,87.8
2017-12-23T11:47:23.746Z,87.7
2017-12-23T11:48:24.452Z,87.8
2017-12-23T11:49:25.122Z,87.6
2017-12-23T11:50:25.792Z,88.1
2017-12-23T11:51:26.460Z,87.9
2017-12-23T11:52:27.128Z,88.0
2017-12-23T11:53:27.835Z,88.2
2017-12-23T11:54:28.502Z,87.9
2017-12-23T11:55:29.178Z,88.1
2017-12-23T11:56:29.838Z,88.5
2017-12-23T11:57:30.506Z,88.4
2017-12-23T11:58:31.179Z,88.3
2017-12-23T11:59:31.883Z,88.2
2017-12-23T12:00:32.550Z,88.6
2017-12-23T12:01:33.219Z,88.5
2017-12-23T12:02:33.888Z,88.5
2017-12-23T12:03:34.555Z,87.8
2017-12-23T12:04:35.228Z,87.8
2017-12-23T12:05:35.893Z,87.8
2017-12-23T12:06:36.562Z,88.1
2017-12-23T12:07:37.230Z,87.6
2017-12-23T12:08:37.899Z,87.6
2017-12-23T12:09:38.568Z,87.6
2017-12-23T12:10:39.244Z,87.1
2017-12-23T12:11:39.905Z,87.1
2017-12-23T12:12:40.576Z,86.7
2017-12-23T12:13:41.246Z,86.7
2017-12-23T12:14:41.915Z,86.5
2017-12-23T12:15:42.585Z,85.9
2017-12-23T12:16:43.253Z,86.1
2017-12-23T12:17:43.922Z,86.2
2017-12-23T12:18:44.601Z,86.1
2017-12-23T12:19:45.261Z,86.0
2017-12-23T12:20:45.929Z,86.1
2017-12-23T12:21:46.598Z,85.7
2017-12-23T12:22:47.268Z,86.0
2017-12-23T12:23:47.936Z,86.1
2017-12-23T12:24:48.605Z,86.2
2017-12-23T12:25:49.276Z,86.0
2017-12-23T12:26:49.984Z,85.8
2017-12-23T12:27:50.655Z,85.5
2017-12-23T12:28:51.323Z,85.6
2017-12-23T12:29:51.994Z,86.1
2017-12-23T12:30:52.713Z,85.8
2017-12-23T12:31:53.385Z,85.9
2017-12-23T12:32:54.060Z,85.7
2017-12-23T12:33:54.726Z,85.7
2017-12-23T12:34:55.393Z,86.1
2017-12-23T12:35:56.152Z,86.5
2017-12-23T12:36:56.820Z,85.8
2017-12-23T12:37:57.492Z,85.9
2017-12-23T12:38:58.161Z,86.0
2017-12-23T12:39:58.870Z,86.2
2017-12-23T12:40:59.540Z,85.6
2017-12-23T12:42:00.211Z,85.6
2017-12-23T12:43:00.880Z,85.0
2017-12-23T12:44:01.552Z,85.4
2017-12-23T12:45:02.223Z,85.2
2017-12-23T12:46:02.893Z,85.1
2017-12-23T12:47:03.566Z,84.6
2017-12-23T12:48:04.238Z,84.8
2017-12-23T12:49:04.906Z,84.0
2017-12-23T12:50:05.575Z,84.3
2017-12-23T12:51:06.246Z,84.3
2017-12-23T12:52:06.914Z,84.6
2017-12-23T12:53:07.585Z,84.3
2017-12-23T12:54:08.256Z,84.3
2017-12-23T12:55:08.924Z,83.9
2017-12-23T12:56:09.595Z,84.3
2017-12-23T12:57:10.264Z,84.4
2017-12-23T12:58:10.940Z,84.3
2017-12-23T12:59:11.604Z,84.4
2017-12-23T13:00:12.282Z,84.7
2017-12-23T13:01:12.946Z,84.2
2017-12-23T13:02:13.647Z,84.3
2017-12-23T13:03:14.325Z,84.4
2017-12-23T13:04:15.005Z,84.3
2017-12-23T13:05:15.668Z,84.3
2017-12-23T13:06:16.387Z,84.4
2017-12-23T13:07:17.056Z,84.3
2017-12-23T13:08:17.727Z,84.4
2017-12-23T13:09:18.401Z,84.4
2017-12-23T13:10:19.075Z,84.2
2017-12-23T13:11:19.741Z,84.4
2017-12-23T13:12:20.410Z,84.6
2017-12-23T13:13:21.077Z,84.6
2017-12-23T13:14:21.746Z,85.2
2017-12-23T13:15:22.418Z,85.4
2017-12-23T13:16:23.089Z,85.2
2017-12-23T13:17:23.757Z,85.0
2017-12-23T13:18:24.426Z,85.1
2017-12-23T13:19:25.105Z,85.4
2017-12-23T13:20:25.763Z,85.4
2017-12-23T13:21:26.431Z,85.7
2017-12-23T13:22:27.101Z,86.3
2017-12-23T13:23:27.790Z,86.0
2017-12-23T13:24:28.441Z,86.7
2017-12-23T13:25:29.109Z,86.3
2017-12-23T13:26:29.865Z,85.8
2017-12-23T13:27:30.536Z,86.2